• Join FlightAware (Why Join?)
  • Login
  • US Flag 
12:48AM EST


 

Airport Tracker/Info


-or-


 

Live Flight TrackerFlight Track Log ✈ N738NR ✈ 07-May-2012 ✈ KLGA - KCLE

Flight Track Log - Related Links

Times and Time Zones

All times are in EDT time to prevent confusion due to time zone crossing. See the N738NR flight status page for this flight to view local times or setup timezone preferences in your user account.

Time Position Orientation Groundspeed Altitude Reporting Facility
EDT Latitude Longitude Course Direction KTS MPH feet Rate Location/Type
08:56AM 40.7500 -73.8500 289° West 165 190 1,200  Level New York TRACON
09:01AM 40.8147 -74.1025 274° West 278 320 13,300 2,340 Climbing New York Center
09:02AM 40.8203 -74.2014 276° West 317 365 14,800 780 Climbing New York Center
09:03AM 40.8308 -74.3281 280° West 360 414 15,000 60 Climbing New York Center
09:04AM 40.8478 -74.4578 277° West 367 422 15,000  Level New York Center
09:05AM 40.8586 -74.5736 279° West 367 422 15,000  Level New York Center
09:06AM 40.8750 -74.7119 277° West 362 417 15,100 420 Climbing New York Center
09:07AM 40.8858 -74.8222 277° West 345 397 15,900 1,140 Climbing New York Center
09:08AM 40.8981 -74.9464 277° West 345 397 17,500 1,500 Climbing New York Center
09:09AM 40.9103 -75.0708 259° West 339 390 18,900 1,620 Climbing New York Center
09:10AM 40.8886 -75.2122 254° West 344 396 20,800 1,620 Climbing New York Center
09:11AM 40.8633 -75.3286 253° West 364 419 22,200 1,560 Climbing New York Center
09:12AM 40.8331 -75.4608 254° West 370 426 23,900 1,620 Climbing New York Center
09:13AM 40.8047 -75.5933 254° West 376 433 25,500 1,620 Climbing New York Center
09:14AM 40.7767 -75.7228 255° West 376 433 27,200 1,620 Climbing New York Center
09:15AM 40.7503 -75.8497 255° West 376 433 28,900 1,500 Climbing New York Center
09:16AM 40.7236 -75.9819 253° West 376 433 30,300 1,320 Climbing New York Center
09:17AM 40.6928 -76.1136 260° West 376 433 31,600 1,320 Climbing New York Center
09:18AM 40.6706 -76.2789 280° West 376 433 33,200 1,020 Climbing New York Center
09:19AM 40.6892 -76.4144 282° West 368 423 34,000 360 Climbing New York Center
09:20AM 40.7119 -76.5506 280° West 379 436 34,000  Level New York Center
09:21AM 40.7303 -76.6836 281° West 379 436 34,000  Level New York Center
09:22AM 40.7486 -76.8139 281° West 368 423 34,000  Level New York Center
09:23AM 40.7689 -76.9500 280° West 373 429 34,000  Level New York Center
09:24AM 40.7867 -77.0861 282° West 378 435 34,000  Level New York Center
09:25AM 40.8083 -77.2225 281° West 378 435 34,000  Level New York Center
09:26AM 40.8283 -77.3561 280° West 378 435 34,000  Level New York Center
09:28AM 40.8753 -77.7078 281° West 372 428 34,000  Level Cleveland Center
09:29AM 40.8953 -77.8472 280° West 382 440 34,000  Level Cleveland Center
09:30AM 40.9131 -77.9839 283° West 387 445 34,000  Level Cleveland Center
09:31AM 40.9369 -78.1203 282° West 387 445 34,000  Level Cleveland Center
09:32AM 40.9586 -78.2569 283° West 387 445 34,000  Level Cleveland Center
09:33AM 40.9822 -78.3964 282° West 387 445 34,000  Level Cleveland Center
09:34AM 41.0036 -78.5333 283° West 387 445 34,000  Level Cleveland Center
09:35AM 41.0267 -78.6703 283° West 387 445 34,000 -120 Level Cleveland Center
09:36AM 41.0497 -78.8072 282° West 387 445 33,800 -600 Descending Cleveland Center
09:37AM 41.0728 -78.9497 282° West 392 451 32,800 -900 Descending Cleveland Center
09:38AM 41.0956 -79.0925 280° West 392 451 32,000 -420 Descending Cleveland Center
09:39AM 41.1139 -79.2300 282° West 392 451 32,000  Level Cleveland Center
09:40AM 41.1364 -79.3672 282° West 392 451 32,000  Level Cleveland Center
09:41AM 41.1586 -79.5075 283° West 392 451 32,000  Level Cleveland Center
09:42AM 41.1828 -79.6478 285° West 392 451 32,000 -60 Level Cleveland Center
09:43AM 41.2089 -79.7744 288° West 392 451 31,900 -540 Descending Cleveland Center
09:44AM 41.2431 -79.9178 287° West 392 451 31,000 -480 Descending Cleveland Center
09:45AM 41.2750 -80.0608 287° West 397 457 31,000  Level Cleveland Center
09:46AM 41.3069 -80.1989 285° West 397 457 31,000 -1,500 Level Cleveland Center
09:47AM 41.3386 -80.3536 287° West 397 457 28,000 -3,180 Descending Cleveland Center
09:48AM 41.3700 -80.4892 285° West 392 451 24,700 -2,040 Descending Cleveland Center
09:49AM 41.3992 -80.6303 287° West 392 451 24,000 -720 Descending Cleveland Center
09:50AM 41.4325 -80.7742 286° West 398 458 23,300 -2,100 Descending Cleveland Center
09:51AM 41.4614 -80.9072 286° West 387 445 19,900 -3,480 Descending Cleveland Center
09:52AM 41.4900 -81.0406 285° West 377 434 16,400 -3,000 Descending Cleveland Center
09:53AM 41.5144 -81.1656 290° West 360 414 13,900 -2,100 Descending Cleveland Center
09:54AM 41.5431 -81.2683 292° West 320 368 12,300 -1,500 Descending Cleveland Center
09:55AM 41.5697 -81.3547 264° West 297 342 10,900 -1,140 Descending Cleveland Center
09:56AM 41.5606 -81.4711 236° Southwest 274 315 10,000 -720 Descending Cleveland Center
09:57AM 41.5203 -81.5511 226° Southwest 260 299 9,500 -780 Descending Cleveland Center
09:58AM 41.4739 -81.6142 227° Southwest 259 298 8,600 -1,020 Descending Cleveland Center
09:59AM 41.4272 -81.6797 227° Southwest 253 291 7,600 -1,140 Descending Cleveland Center
10:00AM 41.3744 -81.7564 226° Southwest 254 292 6,300 -1,380 Descending Cleveland Center
10:01AM 41.3258 -81.8244 227° Southwest 254 292 4,700 -1,320 Descending Cleveland Center
10:03AM 41.2728 -81.9008 328° Northwest 245 282 3,600 -540 Descending Cleveland Center
10:05AM 41.3450 -81.9606 50° Northeast 229 264 3,000 -720 Descending Cleveland Center
10:06AM 41.3811 -81.9031 50° Northeast 201 231 1,500 -1,500 Descending Cleveland Center